sensor_id;sensor_type;location;lat;lon;timestamp;P1;durP1;ratioP1;P2;durP2;ratioP2
4630;SDS011;2328;48.170;11.602;2023-06-26T10:09:42;2.53;;;2.25;;
4630;SDS011;2328;48.170;11.602;2023-06-26T10:12:12;1.80;;;1.70;;
4630;SDS011;2328;48.170;11.602;2023-06-26T10:14:52;2.30;;;2.05;;
4630;SDS011;2328;48.170;11.602;2023-06-26T10:17:34;2.13;;;1.92;;
4630;SDS011;2328;48.170;11.602;2023-06-26T10:20:06;2.20;;;1.80;;
4630;SDS011;2328;48.170;11.602;2023-06-26T10:22:40;2.10;;;2.00;;
4630;SDS011;2328;48.170;11.602;2023-06-26T10:25:19;2.95;;;2.45;;
4630;SDS011;2328;48.170;11.602;2023-06-26T10:28:00;2.28;;;2.03;;
4630;SDS011;2328;48.170;11.602;2023-06-26T10:30:34;2.00;;;1.80;;
4630;SDS011;2328;48.170;11.602;2023-06-26T10:33:04;1.80;;;1.67;;
4630;SDS011;2328;48.170;11.602;2023-06-26T10:35:40;1.95;;;1.83;;
4630;SDS011;2328;48.170;11.602;2023-06-26T10:38:09;2.08;;;1.98;;
4630;SDS011;2328;48.170;11.602;2023-06-26T10:40:49;2.00;;;1.75;;
4630;SDS011;2328;48.170;11.602;2023-06-26T10:43:18;6.22;;;1.95;;
4630;SDS011;2328;48.170;11.602;2023-06-26T10:45:48;1.85;;;1.75;;
4630;SDS011;2328;48.170;11.602;2023-06-26T10:48:33;2.25;;;1.90;;
4630;SDS011;2328;48.170;11.602;2023-06-26T10:51:29;2.55;;;2.00;;
4630;SDS011;2328;48.170;11.602;2023-06-26T10:54:00;2.08;;;1.85;;
4630;SDS011;2328;48.170;11.602;2023-06-26T10:56:43;11.77;;;2.53;;
4630;SDS011;2328;48.170;11.602;2023-06-26T10:59:16;4.82;;;1.90;;
4630;SDS011;2328;48.170;11.602;2023-06-26T11:01:45;1.83;;;1.70;;
4630;SDS011;2328;48.170;11.602;2023-06-26T11:04:14;2.00;;;1.85;;
4630;SDS011;2328;48.170;11.602;2023-06-26T11:06:45;3.00;;;2.15;;
4630;SDS011;2328;48.170;11.602;2023-06-26T11:09:23;2.42;;;2.15;;
4630;SDS011;2328;48.170;11.602;2023-06-26T11:11:59;1.63;;;1.50;;
4630;SDS011;2328;48.170;11.602;2023-06-26T11:14:48;1.40;;;1.30;;
4630;SDS011;2328;48.170;11.602;2023-06-26T11:17:23;1.70;;;1.60;;
4630;SDS011;2328;48.170;11.602;2023-06-26T11:19:59;2.92;;;2.00;;
4630;SDS011;2328;48.170;11.602;2023-06-26T11:22:36;1.80;;;1.70;;
4630;SDS011;2328;48.170;11.602;2023-06-26T11:25:19;2.45;;;2.25;;
4630;SDS011;2328;48.170;11.602;2023-06-26T11:28:04;2.50;;;1.98;;
4630;SDS011;2328;48.170;11.602;2023-06-26T11:30:37;1.90;;;1.80;;
4630;SDS011;2328;48.170;11.602;2023-06-26T11:33:09;2.20;;;2.05;;
4630;SDS011;2328;48.170;11.602;2023-06-26T11:35:45;5.93;;;2.17;;
4630;SDS011;2328;48.170;11.602;2023-06-26T11:38:14;2.38;;;2.17;;
4630;SDS011;2328;48.170;11.602;2023-06-26T11:40:43;2.17;;;1.92;;
4630;SDS011;2328;48.170;11.602;2023-06-26T11:43:21;2.35;;;2.15;;
4630;SDS011;2328;48.170;11.602;2023-06-26T11:46:04;2.60;;;2.40;;
4630;SDS011;2328;48.170;11.602;2023-06-26T11:48:47;2.80;;;2.58;;
4630;SDS011;2328;48.170;11.602;2023-06-26T11:51:16;3.95;;;2.58;;
4630;SDS011;2328;48.170;11.602;2023-06-26T11:53:46;3.88;;;2.13;;
4630;SDS011;2328;48.170;11.602;2023-06-26T11:56:17;2.88;;;2.67;;
4630;SDS011;2328;48.170;11.602;2023-06-26T11:58:57;2.42;;;1.88;;
4630;SDS011;2328;48.170;11.602;2023-06-26T12:01:27;2.67;;;2.47;;
4630;SDS011;2328;48.170;11.602;2023-06-26T12:03:59;2.03;;;1.92;;
4630;SDS011;2328;48.170;11.602;2023-06-26T12:06:29;2.33;;;2.13;;
4630;SDS011;2328;48.170;11.602;2023-06-26T12:09:02;3.38;;;2.38;;
4630;SDS011;2328;48.170;11.602;2023-06-26T12:11:31;2.20;;;2.00;;
4630;SDS011;2328;48.170;11.602;2023-06-26T12:14:10;3.92;;;2.42;;
4630;SDS011;2328;48.170;11.602;2023-06-26T12:16:41;2.80;;;2.30;;
4630;SDS011;2328;48.170;11.602;2023-06-26T12:19:17;2.30;;;2.08;;
4630;SDS011;2328;48.170;11.602;2023-06-26T12:21:52;4.55;;;2.55;;
4630;SDS011;2328;48.170;11.602;2023-06-26T12:24:24;2.83;;;2.30;;
4630;SDS011;2328;48.170;11.602;2023-06-26T12:26:59;2.75;;;2.22;;
4630;SDS011;2328;48.170;11.602;2023-06-26T12:29:35;6.78;;;2.75;;
4630;SDS011;2328;48.170;11.602;2023-06-26T12:32:07;2.70;;;2.50;;
4630;SDS011;2328;48.170;11.602;2023-06-26T12:34:39;3.53;;;2.00;;
4630;SDS011;2328;48.170;11.602;2023-06-26T12:37:08;2.72;;;2.53;;
4630;SDS011;2328;48.170;11.602;2023-06-26T12:39:45;5.55;;;1.90;;
4630;SDS011;2328;48.170;11.602;2023-06-26T12:42:15;1.92;;;1.80;;
4630;SDS011;2328;48.170;11.602;2023-06-26T12:44:45;3.22;;;2.83;;
4630;SDS011;2328;48.170;11.602;2023-06-26T12:47:22;4.15;;;2.70;;
4630;SDS011;2328;48.170;11.602;2023-06-26T12:49:52;3.00;;;2.35;;
4630;SDS011;2328;48.170;11.602;2023-06-26T12:52:21;2.47;;;2.28;;
4630;SDS011;2328;48.170;11.602;2023-06-26T12:54:54;2.75;;;2.55;;
4630;SDS011;2328;48.170;11.602;2023-06-26T12:57:24;2.58;;;2.38;;
4630;SDS011;2328;48.170;11.602;2023-06-26T12:59:54;1.90;;;1.73;;
4630;SDS011;2328;48.170;11.602;2023-06-26T13:02:23;2.13;;;2.03;;
4630;SDS011;2328;48.170;11.602;2023-06-26T13:04:56;2.15;;;1.92;;
4630;SDS011;2328;48.170;11.602;2023-06-26T13:07:25;5.47;;;2.50;;
4630;SDS011;2328;48.170;11.602;2023-06-26T13:09:54;3.15;;;2.70;;
4630;SDS011;2328;48.170;11.602;2023-06-26T13:12:29;2.78;;;2.38;;
4630;SDS011;2328;48.170;11.602;2023-06-26T13:14:59;3.28;;;2.92;;
4630;SDS011;2328;48.170;11.602;2023-06-26T13:17:27;3.72;;;3.08;;
4630;SDS011;2328;48.170;11.602;2023-06-26T13:19:56;3.97;;;2.85;;
4630;SDS011;2328;48.170;11.602;2023-06-26T13:22:27;3.25;;;2.30;;
4630;SDS011;2328;48.170;11.602;2023-06-26T13:24:56;3.40;;;2.97;;
4630;SDS011;2328;48.170;11.602;2023-06-26T13:27:24;2.90;;;2.53;;
4630;SDS011;2328;48.170;11.602;2023-06-26T13:29:53;2.55;;;2.22;;
4630;SDS011;2328;48.170;11.602;2023-06-26T13:32:26;3.28;;;2.97;;
4630;SDS011;2328;48.170;11.602;2023-06-26T13:34:54;2.53;;;2.30;;
4630;SDS011;2328;48.170;11.602;2023-06-26T13:37:24;3.22;;;2.92;;
4630;SDS011;2328;48.170;11.602;2023-06-26T13:39:53;3.25;;;2.75;;
4630;SDS011;2328;48.170;11.602;2023-06-26T13:42:37;3.33;;;2.90;;
4630;SDS011;2328;48.170;11.602;2023-06-26T13:45:12;2.88;;;2.50;;
4630;SDS011;2328;48.170;11.602;2023-06-26T13:47:58;3.83;;;2.72;;
4630;SDS011;2328;48.170;11.602;2023-06-26T13:50:30;2.60;;;2.40;;
4630;SDS011;2328;48.170;11.602;2023-06-26T13:53:18;2.38;;;2.17;;
4630;SDS011;2328;48.170;11.602;2023-06-26T13:55:51;3.15;;;2.28;;
4630;SDS011;2328;48.170;11.602;2023-06-26T13:58:20;3.92;;;3.28;;
4630;SDS011;2328;48.170;11.602;2023-06-26T14:00:52;2.47;;;2.28;;
4630;SDS011;2328;48.170;11.602;2023-06-26T14:03:26;3.28;;;2.97;;
4630;SDS011;2328;48.170;11.602;2023-06-26T14:05:55;3.33;;;3.03;;
4630;SDS011;2328;48.170;11.602;2023-06-26T14:08:24;2.72;;;2.50;;
4630;SDS011;2328;48.170;11.602;2023-06-26T14:10:53;8.50;;;2.88;;
4630;SDS011;2328;48.170;11.602;2023-06-26T14:13:36;3.80;;;2.45;;
4630;SDS011;2328;48.170;11.602;2023-06-26T14:16:09;2.50;;;2.30;;
4630;SDS011;2328;48.170;11.602;2023-06-26T14:18:39;2.38;;;2.17;;
4630;SDS011;2328;48.170;11.602;2023-06-26T14:21:32;3.53;;;2.58;;
4630;SDS011;2328;48.170;11.602;2023-06-26T14:24:03;2.80;;;2.60;;
4630;SDS011;2328;48.170;11.602;2023-06-26T14:26:32;2.58;;;2.38;;
4630;SDS011;2328;48.170;11.602;2023-06-26T14:29:06;4.65;;;2.50;;
4630;SDS011;2328;48.170;11.602;2023-06-26T14:31:37;3.33;;;2.97;;
4630;SDS011;2328;48.170;11.602;2023-06-26T14:34:12;4.78;;;2.70;;
4630;SDS011;2328;48.170;11.602;2023-06-26T14:36:41;2.67;;;2.47;;
4630;SDS011;2328;48.170;11.602;2023-06-26T14:39:37;3.70;;;2.65;;
4630;SDS011;2328;48.170;11.602;2023-06-26T14:42:07;3.92;;;3.15;;
4630;SDS011;2328;48.170;11.602;2023-06-26T14:44:41;4.35;;;2.53;;
4630;SDS011;2328;48.170;11.602;2023-06-26T14:47:14;3.05;;;2.80;;
4630;SDS011;2328;48.170;11.602;2023-06-26T14:49:50;3.00;;;2.80;;
4630;SDS011;2328;48.170;11.602;2023-06-26T14:52:22;3.90;;;2.88;;
4630;SDS011;2328;48.170;11.602;2023-06-26T14:54:53;3.17;;;2.88;;
4630;SDS011;2328;48.170;11.602;2023-06-26T14:57:28;7.60;;;2.88;;
4630;SDS011;2328;48.170;11.602;2023-06-26T14:59:57;3.20;;;2.90;;
4630;SDS011;2328;48.170;11.602;2023-06-26T15:02:42;3.40;;;2.90;;
4630;SDS011;2328;48.170;11.602;2023-06-26T15:05:16;4.22;;;3.08;;
4630;SDS011;2328;48.170;11.602;2023-06-26T15:07:48;3.13;;;2.83;;
4630;SDS011;2328;48.170;11.602;2023-06-26T15:10:17;3.38;;;3.13;;
4630;SDS011;2328;48.170;11.602;2023-06-26T15:12:54;3.40;;;2.90;;
4630;SDS011;2328;48.170;11.602;2023-06-26T15:15:50;3.90;;;3.50;;
4630;SDS011;2328;48.170;11.602;2023-06-26T15:24:32;3.47;;;2.83;;
4630;SDS011;2328;48.170;11.602;2023-06-26T15:27:00;4.68;;;2.90;;
4630;SDS011;2328;48.170;11.602;2023-06-26T15:29:32;4.25;;;3.42;;
4630;SDS011;2328;48.170;11.602;2023-06-26T15:32:22;2.65;;;2.45;;
4630;SDS011;2328;48.170;11.602;2023-06-26T15:35:24;3.40;;;3.08;;
4630;SDS011;2328;48.170;11.602;2023-06-26T16:10:29;3.60;;;3.25;;
4630;SDS011;2328;48.170;11.602;2023-06-26T16:12:58;7.10;;;3.35;;
4630;SDS011;2328;48.170;11.602;2023-06-26T16:15:27;5.05;;;3.17;;
4630;SDS011;2328;48.170;11.602;2023-06-26T16:17:56;4.65;;;3.25;;
4630;SDS011;2328;48.170;11.602;2023-06-26T16:20:25;5.10;;;3.03;;
4630;SDS011;2328;48.170;11.602;2023-06-26T16:22:53;5.50;;;3.47;;
4630;SDS011;2328;48.170;11.602;2023-06-26T16:25:22;3.72;;;3.25;;
4630;SDS011;2328;48.170;11.602;2023-06-26T16:27:53;5.00;;;3.15;;
4630;SDS011;2328;48.170;11.602;2023-06-26T16:30:21;2.50;;;2.30;;
4630;SDS011;2328;48.170;11.602;2023-06-26T16:32:50;3.38;;;3.08;;
4630;SDS011;2328;48.170;11.602;2023-06-26T16:35:20;5.38;;;3.47;;
4630;SDS011;2328;48.170;11.602;2023-06-26T16:37:54;3.33;;;3.03;;
4630;SDS011;2328;48.170;11.602;2023-06-26T16:40:24;3.00;;;2.80;;
4630;SDS011;2328;48.170;11.602;2023-06-26T16:42:55;4.30;;;3.05;;
4630;SDS011;2328;48.170;11.602;2023-06-26T16:45:23;4.95;;;3.50;;
4630;SDS011;2328;48.170;11.602;2023-06-26T16:47:52;4.10;;;3.20;;
4630;SDS011;2328;48.170;11.602;2023-06-26T16:50:21;3.15;;;2.47;;
4630;SDS011;2328;48.170;11.602;2023-06-26T16:52:50;5.20;;;3.22;;
4630;SDS011;2328;48.170;11.602;2023-06-26T16:55:18;5.10;;;3.80;;
4630;SDS011;2328;48.170;11.602;2023-06-26T16:57:47;2.85;;;2.65;;
4630;SDS011;2328;48.170;11.602;2023-06-26T17:00:17;3.35;;;3.05;;
4630;SDS011;2328;48.170;11.602;2023-06-26T17:02:46;2.97;;;2.78;;
4630;SDS011;2328;48.170;11.602;2023-06-26T17:05:17;3.63;;;2.97;;
4630;SDS011;2328;48.170;11.602;2023-06-26T17:07:46;4.30;;;3.10;;
4630;SDS011;2328;48.170;11.602;2023-06-26T17:10:15;4.07;;;3.15;;
4630;SDS011;2328;48.170;11.602;2023-06-26T17:12:47;2.67;;;2.40;;
4630;SDS011;2328;48.170;11.602;2023-06-26T17:15:18;5.25;;;3.78;;
4630;SDS011;2328;48.170;11.602;2023-06-26T17:17:49;5.32;;;3.15;;
4630;SDS011;2328;48.170;11.602;2023-06-26T17:20:18;3.95;;;3.20;;
4630;SDS011;2328;48.170;11.602;2023-06-26T17:22:47;3.28;;;2.97;;
4630;SDS011;2328;48.170;11.602;2023-06-26T17:25:15;4.20;;;3.20;;
4630;SDS011;2328;48.170;11.602;2023-06-26T17:27:44;4.22;;;2.97;;
4630;SDS011;2328;48.170;11.602;2023-06-26T17:30:12;3.90;;;3.23;;
4630;SDS011;2328;48.170;11.602;2023-06-26T17:32:44;4.33;;;3.30;;
4630;SDS011;2328;48.170;11.602;2023-06-26T17:35:12;5.83;;;3.80;;
4630;SDS011;2328;48.170;11.602;2023-06-26T17:37:41;4.90;;;3.60;;
4630;SDS011;2328;48.170;11.602;2023-06-26T17:40:10;4.90;;;3.90;;
4630;SDS011;2328;48.170;11.602;2023-06-26T17:42:39;4.07;;;3.67;;
4630;SDS011;2328;48.170;11.602;2023-06-26T17:45:10;4.97;;;3.43;;
4630;SDS011;2328;48.170;11.602;2023-06-26T17:47:39;5.20;;;3.23;;
4630;SDS011;2328;48.170;11.602;2023-06-26T17:50:10;7.27;;;3.97;;
4630;SDS011;2328;48.170;11.602;2023-06-26T17:52:40;6.43;;;3.97;;
4630;SDS011;2328;48.170;11.602;2023-06-26T17:55:09;5.67;;;4.27;;
4630;SDS011;2328;48.170;11.602;2023-06-26T17:57:38;5.40;;;3.90;;
4630;SDS011;2328;48.170;11.602;2023-06-26T18:00:07;5.87;;;4.23;;
4630;SDS011;2328;48.170;11.602;2023-06-26T18:02:37;5.50;;;4.30;;
4630;SDS011;2328;48.170;11.602;2023-06-26T18:05:07;8.13;;;3.73;;
4630;SDS011;2328;48.170;11.602;2023-06-26T18:07:38;6.37;;;4.00;;
4630;SDS011;2328;48.170;11.602;2023-06-26T18:10:28;4.53;;;3.77;;
4630;SDS011;2328;48.170;11.602;2023-06-26T18:12:57;5.57;;;3.93;;
4630;SDS011;2328;48.170;11.602;2023-06-26T18:15:25;5.07;;;3.93;;
4630;SDS011;2328;48.170;11.602;2023-06-26T18:17:54;5.87;;;4.30;;
4630;SDS011;2328;48.170;11.602;2023-06-26T18:20:23;6.30;;;4.07;;
4630;SDS011;2328;48.170;11.602;2023-06-26T18:22:57;6.50;;;4.10;;
4630;SDS011;2328;48.170;11.602;2023-06-26T18:25:26;6.37;;;4.43;;
4630;SDS011;2328;48.170;11.602;2023-06-26T18:27:55;6.63;;;3.80;;
4630;SDS011;2328;48.170;11.602;2023-06-26T18:30:25;7.60;;;4.00;;
4630;SDS011;2328;48.170;11.602;2023-06-26T18:35:50;4.40;;;3.60;;
4630;SDS011;2328;48.170;11.602;2023-06-26T18:38:21;4.93;;;3.80;;
